VIA109 SVMI-LGAV
Flight info
| Callsign | VIA109 |
|---|---|
| Flight time | N/A |
| Altitude | 23000 |
| Route | OSMAR2 OSMAR W19 DOSRA W30 KOMPU A551 OPLUD/N0494F330 UN669 MASPA/N0495F350 UN669 ELJEZ/M083F350 DCT 23N050W 29N040W/M083F370 33N030W 36N020W DCT LUTAK/N0481F380 DCT NAKOS DCT TROIA DCT HIJ DCT NENOS DCT OLPAM DCT TALEN DCT 3909N00440E DCT TABOT DCT CAR/N0367F190 Q152 TADIX/N0470F380 DCT CDC/N0471F390 DCT RUTOM UN604 RILIN |
| Aircraft | A388/J-SADE2E3FGHIJ3J4J5M1RWXY/LB1D1 |
Departure
| Time | 2026-05-08 01:30 |
|---|---|
| Airport | Maiquetía Simón Bolívar International Airport (SVMI) |
Arrival
| Time | N/A |
|---|---|
| Airport | Athens Eleftherios Venizelos International Airport (LGAV) |
| Time | Latitude | Longitude | Altitude | Speed | Heading |
|---|---|---|---|---|---|
| 2026-05-08 00:30 | 10.59826 | -67.01077 | 243 ft | 0 kts | 178° |
| 2026-05-08 01:16 | 10.59843 | -67.01077 | 243 ft | 3 kts | 178° |
| 2026-05-08 01:17 | 10.59863 | -67.01075 | 245 ft | 3 kts | 192° |
| 2026-05-08 01:17 | 10.59882 | -67.01070 | 247 ft | 3 kts | 197° |
| 2026-05-08 01:17 | 10.59900 | -67.01059 | 246 ft | 3 kts | 221° |
| 2026-05-08 01:17 | 10.59912 | -67.01040 | 244 ft | 3 kts | 247° |
| 2026-05-08 01:18 | 10.59917 | -67.01021 | 242 ft | 0 kts | 259° |
| 2026-05-08 01:22 | 10.59915 | -67.01032 | 242 ft | 3 kts | 259° |
| 2026-05-08 01:22 | 10.59909 | -67.01064 | 245 ft | 6 kts | 261° |
| 2026-05-08 01:22 | 10.59902 | -67.01111 | 244 ft | 7 kts | 264° |
| 2026-05-08 01:22 | 10.59899 | -67.01168 | 245 ft | 9 kts | 271° |
| 2026-05-08 01:23 | 10.59917 | -67.01214 | 246 ft | 6 kts | 331° |
| 2026-05-08 01:23 | 10.59962 | -67.01233 | 246 ft | 8 kts | 346° |
| 2026-05-08 01:23 | 10.60027 | -67.01241 | 246 ft | 11 kts | 356° |
| 2026-05-08 01:23 | 10.60114 | -67.01245 | 246 ft | 14 kts | 358° |
| 2026-05-08 01:24 | 10.60130 | -67.01246 | 245 ft | 0 kts | 358° |
| 2026-05-08 01:25 | 10.60144 | -67.01246 | 245 ft | 6 kts | 359° |
| 2026-05-08 01:26 | 10.60179 | -67.01247 | 243 ft | 0 kts | 359° |
| 2026-05-08 01:27 | 10.60197 | -67.01247 | 243 ft | 5 kts | 358° |
| 2026-05-08 01:27 | 10.60241 | -67.01249 | 243 ft | 8 kts | 359° |
| 2026-05-08 01:27 | 10.60295 | -67.01250 | 244 ft | 8 kts | 359° |
| 2026-05-08 01:28 | 10.60339 | -67.01250 | 246 ft | 0 kts | 11° |
| 2026-05-08 01:28 | 10.60341 | -67.01250 | 246 ft | 1 kts | 16° |
| 2026-05-08 01:28 | 10.60357 | -67.01240 | 246 ft | 4 kts | 47° |
| 2026-05-08 01:28 | 10.60372 | -67.01209 | 245 ft | 7 kts | 72° |
| 2026-05-08 01:29 | 10.60388 | -67.01119 | 244 ft | 35 kts | 85° |
| 2026-05-08 01:29 | 10.60408 | -67.00602 | 237 ft | 111 kts | 87° |
| 2026-05-08 01:29 | 10.60425 | -66.99622 | 223 ft | 165 kts | 90° |
| 2026-05-08 01:29 | 10.60441 | -66.98362 | 468 ft | 179 kts | 89° |
| 2026-05-08 01:30 | 10.60576 | -66.97151 | 1221 ft | 166 kts | 80° |
| 2026-05-08 01:30 | 10.60858 | -66.96120 | 1972 ft | 154 kts | 71° |
| 2026-05-08 01:30 | 10.61301 | -66.95159 | 2598 ft | 145 kts | 62° |
| 2026-05-08 01:30 | 10.61796 | -66.94239 | 2881 ft | 156 kts | 71° |
| 2026-05-08 01:31 | 10.62174 | -66.93182 | 3247 ft | 161 kts | 72° |
| 2026-05-08 01:31 | 10.62707 | -66.92172 | 3534 ft | 167 kts | 43° |
| 2026-05-08 01:31 | 10.63765 | -66.91720 | 3878 ft | 174 kts | 2° |
| 2026-05-08 01:31 | 10.64969 | -66.91997 | 4316 ft | 176 kts | 346° |
| 2026-05-08 01:32 | 10.66151 | -66.92355 | 4699 ft | 178 kts | 355° |
| 2026-05-08 01:32 | 10.67315 | -66.92165 | 5037 ft | 171 kts | 36° |
| 2026-05-08 01:32 | 10.68045 | -66.91245 | 5376 ft | 168 kts | 77° |
| 2026-05-08 01:32 | 10.68033 | -66.90074 | 5709 ft | 167 kts | 98° |
| 2026-05-08 01:33 | 10.67901 | -66.88917 | 6059 ft | 168 kts | 95° |
| 2026-05-08 01:33 | 10.67790 | -66.87723 | 6408 ft | 170 kts | 95° |
| 2026-05-08 01:33 | 10.67681 | -66.86525 | 6754 ft | 170 kts | 95° |
| 2026-05-08 01:33 | 10.67573 | -66.85329 | 7107 ft | 170 kts | 95° |
| 2026-05-08 01:34 | 10.67528 | -66.84128 | 7398 ft | 172 kts | 81° |
| 2026-05-08 01:34 | 10.67754 | -66.82955 | 7723 ft | 171 kts | 80° |
| 2026-05-08 01:34 | 10.67958 | -66.81762 | 8008 ft | 174 kts | 81° |
| 2026-05-08 01:34 | 10.68170 | -66.80533 | 8257 ft | 178 kts | 80° |
| 2026-05-08 01:35 | 10.68404 | -66.79289 | 8512 ft | 181 kts | 80° |
| 2026-05-08 01:35 | 10.68654 | -66.78022 | 8769 ft | 184 kts | 79° |
| 2026-05-08 01:35 | 10.68914 | -66.76741 | 9023 ft | 186 kts | 79° |
| 2026-05-08 01:35 | 10.69178 | -66.75451 | 9268 ft | 188 kts | 79° |
| 2026-05-08 01:36 | 10.69445 | -66.74140 | 9526 ft | 191 kts | 79° |
| 2026-05-08 01:36 | 10.69717 | -66.72800 | 9705 ft | 196 kts | 79° |
| 2026-05-08 01:36 | 10.69997 | -66.71426 | 9864 ft | 201 kts | 79° |
| 2026-05-08 01:36 | 10.70283 | -66.70026 | 10009 ft | 207 kts | 79° |
| 2026-05-08 01:37 | 10.70579 | -66.68581 | 10153 ft | 211 kts | 79° |
| 2026-05-08 01:37 | 10.70881 | -66.67103 | 10292 ft | 215 kts | 79° |
| 2026-05-08 01:37 | 10.71192 | -66.65574 | 10418 ft | 229 kts | 79° |
| 2026-05-08 01:37 | 10.71529 | -66.63916 | 10495 ft | 252 kts | 79° |
| 2026-05-08 01:38 | 10.71899 | -66.62098 | 10594 ft | 273 kts | 79° |
| 2026-05-08 01:38 | 10.72296 | -66.60152 | 10754 ft | 291 kts | 78° |
| 2026-05-08 01:38 | 10.72720 | -66.58072 | 10884 ft | 307 kts | 78° |
| 2026-05-08 01:38 | 10.73171 | -66.55901 | 11022 ft | 322 kts | 76° |
| 2026-05-08 01:39 | 10.73774 | -66.53745 | 11169 ft | 336 kts | 74° |
| 2026-05-08 01:39 | 10.74434 | -66.51445 | 11632 ft | 339 kts | 74° |
| 2026-05-08 01:39 | 10.75088 | -66.49140 | 12144 ft | 341 kts | 74° |
| 2026-05-08 01:39 | 10.75712 | -66.46932 | 12630 ft | 343 kts | 73° |
| 2026-05-08 01:40 | 10.76370 | -66.44600 | 13163 ft | 344 kts | 73° |
| 2026-05-08 01:40 | 10.76993 | -66.42390 | 13653 ft | 346 kts | 73° |
| 2026-05-08 01:40 | 10.77661 | -66.40025 | 14099 ft | 349 kts | 73° |
| 2026-05-08 01:40 | 10.78335 | -66.37638 | 14500 ft | 353 kts | 73° |
| 2026-05-08 01:41 | 10.79015 | -66.35225 | 14911 ft | 356 kts | 73° |
| 2026-05-08 01:41 | 10.79702 | -66.32790 | 15315 ft | 360 kts | 73° |
| 2026-05-08 01:41 | 10.80386 | -66.30368 | 15731 ft | 363 kts | 73° |
| 2026-05-08 01:41 | 10.81095 | -66.27857 | 16165 ft | 366 kts | 73° |
| 2026-05-08 01:42 | 10.81790 | -66.25394 | 16561 ft | 369 kts | 73° |
| 2026-05-08 01:42 | 10.82435 | -66.23107 | 16936 ft | 372 kts | 73° |
| 2026-05-08 01:42 | 10.83154 | -66.20558 | 17316 ft | 376 kts | 73° |
| 2026-05-08 01:42 | 10.83876 | -66.17994 | 17707 ft | 379 kts | 72° |
| 2026-05-08 01:43 | 10.84603 | -66.15416 | 18095 ft | 382 kts | 72° |
| 2026-05-08 01:43 | 10.85340 | -66.12798 | 18414 ft | 386 kts | 72° |
| 2026-05-08 01:43 | 10.86083 | -66.10159 | 18725 ft | 390 kts | 72° |
| 2026-05-08 01:43 | 10.86833 | -66.07491 | 19045 ft | 393 kts | 73° |
| 2026-05-08 01:44 | 10.87588 | -66.04809 | 19336 ft | 397 kts | 73° |
| 2026-05-08 01:44 | 10.88353 | -66.02095 | 19634 ft | 400 kts | 72° |
| 2026-05-08 01:44 | 10.89473 | -65.99500 | 19918 ft | 401 kts | 56° |
| 2026-05-08 01:44 | 10.91261 | -65.97317 | 20201 ft | 402 kts | 40° |
| 2026-05-08 01:45 | 10.93572 | -65.95721 | 20510 ft | 402 kts | 24° |
| 2026-05-08 01:45 | 10.96175 | -65.94796 | 20798 ft | 403 kts | 13° |
| 2026-05-08 01:45 | 10.98909 | -65.94112 | 21114 ft | 405 kts | 11° |
| 2026-05-08 01:45 | 11.01655 | -65.93444 | 21404 ft | 408 kts | 12° |
| 2026-05-08 01:46 | 11.04441 | -65.92734 | 21709 ft | 411 kts | 12° |
| 2026-05-08 01:46 | 11.07218 | -65.91995 | 21999 ft | 414 kts | 13° |
| 2026-05-08 01:46 | 11.10011 | -65.91231 | 22298 ft | 417 kts | 13° |
| 2026-05-08 01:46 | 11.12816 | -65.90457 | 22595 ft | 419 kts | 13° |
| 2026-05-08 01:47 | 11.15642 | -65.89674 | 22886 ft | 422 kts | 13° |
| 2026-05-08 01:47 | 11.18453 | -65.88894 | 23198 ft | 424 kts | 13° |
| 2026-05-08 01:47 | 11.21347 | -65.88092 | 23509 ft | 426 kts | 13° |
| 2026-05-08 01:48 | 11.27059 | -65.86510 | 24035 ft | 430 kts | 13° |
| 2026-05-08 01:48 | 11.29876 | -65.85729 | 24288 ft | 432 kts | 13° |
| 2026-05-08 01:48 | 11.32774 | -65.84926 | 24566 ft | 433 kts | 13° |
| 2026-05-08 01:48 | 11.35617 | -65.83883 | 24813 ft | 438 kts | 25° |
| 2026-05-08 01:49 | 11.38189 | -65.82183 | 25067 ft | 443 kts | 38° |
| 2026-05-08 01:49 | 11.40356 | -65.79876 | 25315 ft | 447 kts | 51° |
| 2026-05-08 01:49 | 11.42034 | -65.77453 | 25546 ft | 450 kts | 54° |
| 2026-05-08 01:49 | 11.43777 | -65.74799 | 25796 ft | 452 kts | 55° |
| 2026-05-08 01:50 | 11.45569 | -65.72096 | 26082 ft | 454 kts | 54° |
| 2026-05-08 01:50 | 11.47337 | -65.69484 | 26325 ft | 456 kts | 54° |
| 2026-05-08 01:50 | 11.49166 | -65.66819 | 26598 ft | 457 kts | 53° |
| 2026-05-08 01:50 | 11.50996 | -65.64172 | 26895 ft | 459 kts | 53° |
| 2026-05-08 01:51 | 11.52842 | -65.61510 | 27179 ft | 461 kts | 53° |
| 2026-05-08 01:51 | 11.54699 | -65.58832 | 27465 ft | 463 kts | 53° |
| 2026-05-08 01:51 | 11.56560 | -65.56149 | 27778 ft | 465 kts | 53° |
| 2026-05-08 01:51 | 11.58430 | -65.53450 | 28058 ft | 467 kts | 53° |
| 2026-05-08 01:52 | 11.60308 | -65.50740 | 28359 ft | 469 kts | 53° |
| 2026-05-08 01:52 | 11.62202 | -65.48004 | 28686 ft | 472 kts | 53° |
| 2026-05-08 01:52 | 11.64093 | -65.45272 | 29012 ft | 474 kts | 53° |
| 2026-05-08 01:52 | 11.66003 | -65.42512 | 29323 ft | 476 kts | 53° |
| 2026-05-08 01:53 | 11.67914 | -65.39748 | 29664 ft | 479 kts | 53° |
| 2026-05-08 01:53 | 11.69843 | -65.36957 | 29992 ft | 481 kts | 53° |
| 2026-05-08 01:53 | 11.71775 | -65.34165 | 30270 ft | 484 kts | 53° |
| 2026-05-08 01:53 | 11.73699 | -65.31383 | 30559 ft | 486 kts | 53° |
| 2026-05-08 01:54 | 11.75655 | -65.28553 | 30850 ft | 489 kts | 53° |
| 2026-05-08 01:54 | 11.77620 | -65.25711 | 31120 ft | 491 kts | 53° |
| 2026-05-08 01:54 | 11.79598 | -65.22848 | 31393 ft | 494 kts | 53° |
| 2026-05-08 01:54 | 11.81580 | -65.19977 | 31694 ft | 496 kts | 53° |
| 2026-05-08 01:55 | 11.83580 | -65.17081 | 31967 ft | 499 kts | 53° |
| 2026-05-08 01:55 | 11.85582 | -65.14179 | 32235 ft | 502 kts | 53° |
| 2026-05-08 01:55 | 11.87601 | -65.11253 | 32497 ft | 504 kts | 53° |
| 2026-05-08 01:55 | 11.89599 | -65.08356 | 32765 ft | 507 kts | 53° |
| 2026-05-08 01:56 | 11.91660 | -65.05367 | 33032 ft | 510 kts | 53° |
| 2026-05-08 01:56 | 11.93677 | -65.02441 | 33313 ft | 512 kts | 53° |
| 2026-05-08 01:56 | 11.95734 | -64.99457 | 33568 ft | 514 kts | 53° |
| 2026-05-08 01:56 | 11.97792 | -64.96469 | 33834 ft | 517 kts | 53° |
| 2026-05-08 01:57 | 11.99866 | -64.93457 | 34114 ft | 519 kts | 53° |
| 2026-05-08 01:57 | 12.01882 | -64.90529 | 34378 ft | 521 kts | 53° |
| 2026-05-08 01:57 | 12.03966 | -64.87501 | 34628 ft | 522 kts | 53° |
| 2026-05-08 01:57 | 12.06067 | -64.84447 | 34921 ft | 523 kts | 53° |
| 2026-05-08 01:58 | 12.10261 | -64.78349 | 35012 ft | 527 kts | 53° |
| 2026-05-08 01:58 | 12.14480 | -64.72211 | 35007 ft | 527 kts | 53° |
| 2026-05-08 01:59 | 12.18671 | -64.66109 | 35012 ft | 528 kts | 53° |
| 2026-05-08 01:59 | 12.22893 | -64.59959 | 35008 ft | 528 kts | 53° |
| 2026-05-08 02:00 | 12.27136 | -64.53774 | 35006 ft | 528 kts | 53° |
| 2026-05-08 02:00 | 12.31319 | -64.47671 | 34996 ft | 528 kts | 53° |
| 2026-05-08 02:01 | 12.35539 | -64.41513 | 35004 ft | 528 kts | 53° |
| 2026-05-08 02:01 | 12.39736 | -64.35325 | 35005 ft | 529 kts | 54° |
| 2026-05-08 02:02 | 12.43909 | -64.29124 | 35013 ft | 529 kts | 54° |
| 2026-05-08 02:02 | 12.48098 | -64.22906 | 35035 ft | 529 kts | 54° |
| 2026-05-08 02:03 | 12.52218 | -64.16790 | 35026 ft | 530 kts | 54° |
| 2026-05-08 02:03 | 12.56404 | -64.10575 | 35033 ft | 530 kts | 54° |
| 2026-05-08 02:04 | 12.60584 | -64.04365 | 35022 ft | 530 kts | 54° |
| 2026-05-08 02:04 | 12.64742 | -63.98182 | 35017 ft | 530 kts | 54° |
| 2026-05-08 02:05 | 12.68929 | -63.91952 | 35018 ft | 531 kts | 54° |
| 2026-05-08 02:05 | 12.73124 | -63.85707 | 35018 ft | 531 kts | 54° |
| 2026-05-08 02:06 | 12.77309 | -63.79471 | 35020 ft | 531 kts | 54° |
| 2026-05-08 02:06 | 12.80796 | -63.74272 | 35021 ft | 532 kts | 54° |
| 2026-05-08 02:07 | 12.85658 | -63.66997 | 35023 ft | 532 kts | 54° |
| 2026-05-08 02:07 | 12.90235 | -63.61047 | 35020 ft | 531 kts | 49° |
| 2026-05-08 02:08 | 12.94149 | -63.56181 | 35024 ft | 532 kts | 49° |
| 2026-05-08 02:08 | 12.98852 | -63.50318 | 35027 ft | 532 kts | 49° |
| 2026-05-08 02:09 | 13.03557 | -63.44455 | 35029 ft | 532 kts | 49° |
| 2026-05-08 02:09 | 13.08260 | -63.38589 | 35032 ft | 533 kts | 49° |
| 2026-05-08 02:10 | 13.12975 | -63.32706 | 35029 ft | 533 kts | 49° |
| 2026-05-08 02:10 | 13.17682 | -63.26829 | 35030 ft | 533 kts | 50° |
| 2026-05-08 02:11 | 13.22359 | -63.20985 | 35033 ft | 533 kts | 50° |
| 2026-05-08 02:11 | 13.27059 | -63.15109 | 35029 ft | 533 kts | 50° |
| 2026-05-08 02:12 | 13.31767 | -63.09220 | 35026 ft | 533 kts | 50° |
| 2026-05-08 02:12 | 13.36146 | -63.03737 | 35026 ft | 533 kts | 50° |
| 2026-05-08 02:13 | 13.40845 | -62.97850 | 35030 ft | 534 kts | 50° |
| 2026-05-08 02:13 | 13.45529 | -62.91979 | 35032 ft | 534 kts | 50° |
| 2026-05-08 02:14 | 13.50234 | -62.86076 | 35040 ft | 534 kts | 50° |
| 2026-05-08 02:14 | 13.54948 | -62.80159 | 35041 ft | 534 kts | 50° |
| 2026-05-08 02:15 | 13.59164 | -62.74862 | 35038 ft | 534 kts | 50° |
| 2026-05-08 02:15 | 13.63871 | -62.68946 | 35035 ft | 534 kts | 50° |
| 2026-05-08 02:16 | 13.68572 | -62.63034 | 35031 ft | 534 kts | 50° |
| 2026-05-08 02:16 | 13.73277 | -62.57111 | 35031 ft | 534 kts | 50° |
| 2026-05-08 02:17 | 13.77979 | -62.51188 | 35041 ft | 534 kts | 50° |
| 2026-05-08 02:17 | 13.82677 | -62.45267 | 35036 ft | 534 kts | 50° |
| 2026-05-08 02:18 | 13.87369 | -62.39348 | 35040 ft | 535 kts | 50° |
| 2026-05-08 02:18 | 13.92068 | -62.33416 | 35037 ft | 535 kts | 50° |
| 2026-05-08 02:19 | 13.96775 | -62.27471 | 35040 ft | 535 kts | 50° |
| 2026-05-08 02:19 | 14.01488 | -62.21514 | 35044 ft | 536 kts | 50° |
| 2026-05-08 02:20 | 14.06186 | -62.15570 | 35050 ft | 536 kts | 50° |
| 2026-05-08 02:20 | 14.10887 | -62.09619 | 35058 ft | 535 kts | 50° |
| 2026-05-08 02:21 | 14.15560 | -62.03699 | 35053 ft | 535 kts | 50° |
| 2026-05-08 02:21 | 14.20258 | -61.97744 | 35049 ft | 535 kts | 50° |
| 2026-05-08 02:22 | 14.24953 | -61.91787 | 35040 ft | 535 kts | 50° |
| 2026-05-08 02:22 | 14.29641 | -61.85836 | 35041 ft | 535 kts | 50° |
| 2026-05-08 02:23 | 14.34324 | -61.79885 | 35040 ft | 535 kts | 50° |
| 2026-05-08 02:23 | 14.38842 | -61.74142 | 35037 ft | 535 kts | 50° |
| 2026-05-08 02:24 | 14.43536 | -61.68169 | 35038 ft | 535 kts | 50° |
| 2026-05-08 02:24 | 14.48194 | -61.62238 | 35039 ft | 535 kts | 50° |
| 2026-05-08 02:25 | 14.52913 | -61.56224 | 35038 ft | 535 kts | 50° |
| 2026-05-08 02:25 | 14.57563 | -61.50295 | 35041 ft | 535 kts | 50° |
| 2026-05-08 02:26 | 14.62255 | -61.44308 | 35039 ft | 535 kts | 50° |
| 2026-05-08 02:26 | 14.66946 | -61.38317 | 35040 ft | 536 kts | 50° |
| 2026-05-08 02:27 | 14.71561 | -61.32418 | 35041 ft | 536 kts | 50° |
| 2026-05-08 02:27 | 14.76242 | -61.26432 | 35039 ft | 536 kts | 50° |
| 2026-05-08 02:28 | 14.80740 | -61.20674 | 35043 ft | 536 kts | 50° |
| 2026-05-08 02:28 | 14.85433 | -61.14664 | 35052 ft | 536 kts | 50° |
| 2026-05-08 02:29 | 14.90119 | -61.08659 | 35051 ft | 536 kts | 50° |
| 2026-05-08 02:29 | 14.94797 | -61.02652 | 35059 ft | 536 kts | 50° |
| 2026-05-08 02:30 | 14.99468 | -60.96653 | 35059 ft | 536 kts | 50° |
| 2026-05-08 02:30 | 15.04155 | -60.90631 | 35060 ft | 537 kts | 50° |
| 2026-05-08 02:31 | 15.08838 | -60.84608 | 35059 ft | 537 kts | 50° |
| 2026-05-08 02:31 | 15.13261 | -60.78915 | 35059 ft | 537 kts | 50° |
| 2026-05-08 02:32 | 15.17719 | -60.73173 | 35058 ft | 537 kts | 50° |
| 2026-05-08 02:32 | 15.22397 | -60.67143 | 35060 ft | 537 kts | 50° |
| 2026-05-08 02:33 | 15.26540 | -60.61799 | 35055 ft | 538 kts | 51° |
| 2026-05-08 02:33 | 15.30905 | -60.56164 | 35065 ft | 538 kts | 51° |
| 2026-05-08 02:34 | 15.35466 | -60.50271 | 35064 ft | 538 kts | 51° |
| 2026-05-08 02:34 | 15.40151 | -60.44213 | 35065 ft | 538 kts | 51° |
| 2026-05-08 02:35 | 15.44826 | -60.38164 | 35058 ft | 538 kts | 51° |
| 2026-05-08 02:35 | 15.49482 | -60.32135 | 35060 ft | 538 kts | 51° |
| 2026-05-08 02:36 | 15.54161 | -60.26071 | 35065 ft | 538 kts | 51° |
| 2026-05-08 02:36 | 15.58842 | -60.19999 | 35063 ft | 539 kts | 51° |
| 2026-05-08 02:37 | 15.63523 | -60.13923 | 35061 ft | 539 kts | 51° |
| 2026-05-08 02:37 | 15.67642 | -60.08571 | 35060 ft | 539 kts | 51° |
| 2026-05-08 02:38 | 15.71898 | -60.03038 | 35062 ft | 539 kts | 51° |
| 2026-05-08 02:38 | 15.76547 | -59.96989 | 35061 ft | 539 kts | 51° |
| 2026-05-08 02:39 | 15.81223 | -59.90900 | 35065 ft | 540 kts | 51° |
| 2026-05-08 02:39 | 15.85828 | -59.84899 | 35069 ft | 540 kts | 51° |
| 2026-05-08 02:40 | 15.90508 | -59.78795 | 35070 ft | 540 kts | 51° |
| 2026-05-08 02:40 | 15.95185 | -59.72689 | 35072 ft | 540 kts | 51° |
| 2026-05-08 02:41 | 15.99858 | -59.66585 | 35068 ft | 540 kts | 51° |
| 2026-05-08 02:41 | 16.04536 | -59.60468 | 35072 ft | 540 kts | 51° |
| 2026-05-08 02:42 | 16.09197 | -59.54367 | 35068 ft | 540 kts | 51° |
| 2026-05-08 02:42 | 16.13877 | -59.48239 | 35068 ft | 540 kts | 51° |
| 2026-05-08 02:43 | 16.18514 | -59.42162 | 35066 ft | 540 kts | 51° |
| 2026-05-08 02:43 | 16.23182 | -59.36035 | 35070 ft | 540 kts | 51° |
| 2026-05-08 02:44 | 16.27857 | -59.29897 | 35071 ft | 540 kts | 51° |
| 2026-05-08 02:44 | 16.32521 | -59.23770 | 35069 ft | 540 kts | 51° |
| 2026-05-08 02:45 | 16.37190 | -59.17629 | 35066 ft | 541 kts | 51° |
| 2026-05-08 02:45 | 16.41786 | -59.11578 | 35069 ft | 541 kts | 51° |
| 2026-05-08 02:46 | 16.46452 | -59.05432 | 35069 ft | 541 kts | 51° |
| 2026-05-08 02:46 | 16.51086 | -58.99320 | 35072 ft | 541 kts | 51° |
| 2026-05-08 02:47 | 16.55760 | -58.93153 | 35072 ft | 542 kts | 51° |
| 2026-05-08 02:47 | 16.60428 | -58.86987 | 35070 ft | 542 kts | 51° |
| 2026-05-08 02:48 | 16.65098 | -58.80813 | 35075 ft | 542 kts | 51° |
| 2026-05-08 02:48 | 16.69702 | -58.74721 | 35076 ft | 542 kts | 51° |
| 2026-05-08 02:49 | 16.74376 | -58.68531 | 35073 ft | 543 kts | 51° |
| 2026-05-08 02:49 | 16.79020 | -58.62375 | 35076 ft | 543 kts | 51° |
| 2026-05-08 02:50 | 16.83699 | -58.56167 | 35074 ft | 543 kts | 51° |
| 2026-05-08 02:50 | 16.88376 | -58.49956 | 35081 ft | 543 kts | 51° |
| 2026-05-08 02:51 | 16.93039 | -58.43759 | 35079 ft | 543 kts | 51° |
| 2026-05-08 02:51 | 16.97667 | -58.37602 | 35060 ft | 543 kts | 51° |
| 2026-05-08 02:52 | 17.02339 | -58.31382 | 35061 ft | 544 kts | 51° |
| 2026-05-08 02:52 | 17.07022 | -58.25141 | 35064 ft | 544 kts | 51° |
| 2026-05-08 02:53 | 17.11686 | -58.18920 | 35064 ft | 544 kts | 51° |
| 2026-05-08 02:53 | 17.16353 | -58.12689 | 35069 ft | 544 kts | 51° |
| 2026-05-08 02:54 | 17.21024 | -58.06447 | 35068 ft | 545 kts | 51° |
| 2026-05-08 02:54 | 17.25664 | -58.00241 | 35080 ft | 545 kts | 51° |
| 2026-05-08 02:55 | 17.32660 | -57.90873 | 35079 ft | 545 kts | 51° |
| 2026-05-08 02:56 | 17.36548 | -57.85661 | 35078 ft | 545 kts | 51° |
| 2026-05-08 02:56 | 17.41222 | -57.79391 | 35078 ft | 546 kts | 51° |
| 2026-05-08 02:57 | 17.45894 | -57.73116 | 35076 ft | 546 kts | 51° |
| 2026-05-08 02:57 | 17.50567 | -57.66835 | 35077 ft | 546 kts | 51° |
| 2026-05-08 02:58 | 17.55231 | -57.60560 | 35075 ft | 546 kts | 51° |
| 2026-05-08 02:58 | 17.59907 | -57.54263 | 35074 ft | 546 kts | 51° |
| 2026-05-08 02:59 | 17.64540 | -57.48020 | 35075 ft | 547 kts | 51° |
| 2026-05-08 02:59 | 17.69212 | -57.41715 | 35074 ft | 547 kts | 51° |
| 2026-05-08 03:00 | 17.73868 | -57.35424 | 35076 ft | 547 kts | 51° |
| 2026-05-08 03:00 | 17.78535 | -57.29113 | 35075 ft | 547 kts | 51° |
| 2026-05-08 03:01 | 17.83206 | -57.22791 | 35076 ft | 547 kts | 51° |
| 2026-05-08 03:01 | 17.87844 | -57.16508 | 35073 ft | 547 kts | 51° |
| 2026-05-08 03:02 | 17.92506 | -57.10187 | 35073 ft | 548 kts | 51° |
| 2026-05-08 03:02 | 17.97175 | -57.03850 | 35082 ft | 548 kts | 51° |
| 2026-05-08 03:03 | 18.01850 | -56.97517 | 35080 ft | 548 kts | 51° |
| 2026-05-08 03:03 | 18.06599 | -56.91242 | 35080 ft | 548 kts | 51° |
| 2026-05-08 03:04 | 18.11355 | -56.84971 | 35079 ft | 548 kts | 51° |
| 2026-05-08 03:04 | 18.16096 | -56.78699 | 35076 ft | 548 kts | 51° |
| 2026-05-08 03:05 | 18.20840 | -56.72410 | 35078 ft | 548 kts | 51° |
| 2026-05-08 03:05 | 18.25584 | -56.66117 | 35080 ft | 548 kts | 51° |
| 2026-05-08 03:06 | 18.30289 | -56.59868 | 35086 ft | 548 kts | 51° |
| 2026-05-08 03:06 | 18.35035 | -56.53557 | 35080 ft | 548 kts | 51° |
| 2026-05-08 03:07 | 18.39769 | -56.47254 | 35079 ft | 548 kts | 51° |
| 2026-05-08 03:07 | 18.44504 | -56.40943 | 35076 ft | 548 kts | 51° |
| 2026-05-08 03:08 | 18.49224 | -56.34647 | 35078 ft | 549 kts | 51° |
| 2026-05-08 03:08 | 18.53963 | -56.28318 | 35078 ft | 549 kts | 51° |
| 2026-05-08 03:09 | 18.58694 | -56.21994 | 35076 ft | 549 kts | 51° |
| 2026-05-08 03:09 | 18.63388 | -56.15713 | 35082 ft | 549 kts | 51° |
| 2026-05-08 03:10 | 18.68108 | -56.09391 | 35081 ft | 549 kts | 51° |
| 2026-05-08 03:10 | 18.72834 | -56.03054 | 35079 ft | 549 kts | 51° |
| 2026-05-08 03:11 | 18.77562 | -55.96709 | 35081 ft | 549 kts | 51° |
| 2026-05-08 03:11 | 18.82287 | -55.90362 | 35085 ft | 549 kts | 51° |
| 2026-05-08 03:12 | 18.87009 | -55.84011 | 35077 ft | 550 kts | 51° |
| 2026-05-08 03:12 | 18.91732 | -55.77653 | 35079 ft | 550 kts | 51° |
| 2026-05-08 03:13 | 18.96400 | -55.71362 | 35078 ft | 550 kts | 51° |
| 2026-05-08 03:13 | 19.01111 | -55.65007 | 35083 ft | 550 kts | 51° |
| 2026-05-08 03:14 | 19.05831 | -55.58634 | 35079 ft | 550 kts | 51° |
| 2026-05-08 03:14 | 19.10518 | -55.52298 | 35084 ft | 550 kts | 51° |
| 2026-05-08 03:15 | 19.15231 | -55.45920 | 35081 ft | 550 kts | 51° |
| 2026-05-08 03:15 | 19.19949 | -55.39529 | 35064 ft | 550 kts | 51° |
| 2026-05-08 03:16 | 19.24662 | -55.33139 | 35068 ft | 551 kts | 51° |
| 2026-05-08 03:16 | 19.29373 | -55.26744 | 35071 ft | 551 kts | 51° |
| 2026-05-08 03:17 | 19.34058 | -55.20379 | 35090 ft | 551 kts | 51° |
| 2026-05-08 03:17 | 19.38767 | -55.13973 | 35089 ft | 551 kts | 51° |
| 2026-05-08 03:18 | 19.43472 | -55.07567 | 35093 ft | 551 kts | 51° |
| 2026-05-08 03:18 | 19.48182 | -55.01146 | 35103 ft | 551 kts | 51° |
| 2026-05-08 03:19 | 19.52762 | -54.94897 | 35098 ft | 551 kts | 51° |
| 2026-05-08 03:19 | 19.57461 | -54.88478 | 35083 ft | 551 kts | 51° |
| 2026-05-08 03:20 | 19.62160 | -54.82053 | 35082 ft | 551 kts | 51° |
| 2026-05-08 03:20 | 19.66853 | -54.75628 | 35082 ft | 551 kts | 51° |
| 2026-05-08 03:21 | 19.71543 | -54.69202 | 35079 ft | 551 kts | 51° |
| 2026-05-08 03:21 | 19.76236 | -54.62764 | 35083 ft | 551 kts | 51° |
| 2026-05-08 03:22 | 19.80927 | -54.56321 | 35081 ft | 551 kts | 51° |
| 2026-05-08 03:22 | 19.85595 | -54.49904 | 35081 ft | 551 kts | 51° |
| 2026-05-08 03:23 | 19.90313 | -54.43410 | 35084 ft | 551 kts | 51° |
| 2026-05-08 03:23 | 19.94960 | -54.37008 | 35083 ft | 551 kts | 51° |
| 2026-05-08 03:24 | 19.99650 | -54.30539 | 35082 ft | 552 kts | 52° |
| 2026-05-08 03:24 | 20.04328 | -54.24080 | 35088 ft | 552 kts | 52° |
| 2026-05-08 03:25 | 20.09014 | -54.17602 | 35087 ft | 552 kts | 52° |
| 2026-05-08 03:25 | 20.13697 | -54.11123 | 35085 ft | 552 kts | 52° |
| 2026-05-08 03:26 | 20.18369 | -54.04649 | 35084 ft | 551 kts | 52° |
| 2026-05-08 03:26 | 20.23015 | -53.98206 | 35087 ft | 551 kts | 52° |
| 2026-05-08 03:27 | 20.27685 | -53.91722 | 35085 ft | 551 kts | 52° |
| 2026-05-08 03:27 | 20.32351 | -53.85236 | 35084 ft | 552 kts | 52° |
| 2026-05-08 03:28 | 20.36998 | -53.78770 | 35088 ft | 552 kts | 52° |
| 2026-05-08 03:28 | 20.41666 | -53.72267 | 35082 ft | 552 kts | 52° |
| 2026-05-08 03:29 | 20.46331 | -53.65762 | 35084 ft | 552 kts | 52° |
| 2026-05-08 03:29 | 20.50995 | -53.59249 | 35087 ft | 552 kts | 52° |
| 2026-05-08 03:30 | 20.57984 | -53.49477 | 35086 ft | 552 kts | 52° |
| 2026-05-08 03:31 | 20.67276 | -53.36459 | 35092 ft | 552 kts | 52° |
| 2026-05-08 03:32 | 20.74254 | -53.26664 | 35095 ft | 552 kts | 52° |
| 2026-05-08 03:32 | 20.78903 | -53.20128 | 35089 ft | 552 kts | 52° |
| 2026-05-08 03:33 | 20.83555 | -53.13580 | 35094 ft | 552 kts | 52° |
| 2026-05-08 03:33 | 20.88200 | -53.07036 | 35088 ft | 552 kts | 52° |
| 2026-05-08 03:34 | 20.92847 | -53.00480 | 35091 ft | 552 kts | 52° |
| 2026-05-08 03:34 | 20.97488 | -52.93926 | 35088 ft | 552 kts | 52° |
| 2026-05-08 03:35 | 21.02127 | -52.87367 | 35087 ft | 553 kts | 52° |
| 2026-05-08 03:35 | 21.06763 | -52.80804 | 35088 ft | 553 kts | 52° |
| 2026-05-08 03:36 | 21.11370 | -52.74275 | 35089 ft | 553 kts | 52° |
| 2026-05-08 03:36 | 21.16004 | -52.67700 | 35091 ft | 553 kts | 52° |
| 2026-05-08 03:37 | 21.20630 | -52.61129 | 35086 ft | 553 kts | 52° |
| 2026-05-08 03:37 | 21.25259 | -52.54545 | 35087 ft | 553 kts | 52° |
| 2026-05-08 03:38 | 21.29881 | -52.47964 | 35083 ft | 553 kts | 52° |
| 2026-05-08 03:38 | 21.34508 | -52.41368 | 35083 ft | 553 kts | 52° |
| 2026-05-08 03:39 | 21.39112 | -52.34796 | 35084 ft | 553 kts | 52° |
| 2026-05-08 03:39 | 21.43731 | -52.28196 | 35085 ft | 553 kts | 52° |
| 2026-05-08 03:40 | 21.48349 | -52.21590 | 35088 ft | 553 kts | 52° |
| 2026-05-08 03:40 | 21.52975 | -52.14963 | 35086 ft | 554 kts | 52° |
| 2026-05-08 03:41 | 21.57601 | -52.08329 | 35088 ft | 554 kts | 52° |
| 2026-05-08 03:41 | 21.62211 | -52.01710 | 35090 ft | 554 kts | 52° |
| 2026-05-08 03:42 | 21.66797 | -51.95117 | 35092 ft | 554 kts | 52° |
| 2026-05-08 03:42 | 21.71403 | -51.88487 | 35087 ft | 553 kts | 53° |
| 2026-05-08 03:43 | 21.75261 | -51.82929 | 35087 ft | 554 kts | 53° |
| 2026-05-08 03:43 | 21.80617 | -51.75201 | 35087 ft | 554 kts | 53° |
| 2026-05-08 03:44 | 21.84442 | -51.69676 | 35088 ft | 554 kts | 53° |
| 2026-05-08 03:44 | 21.89069 | -51.62986 | 35091 ft | 554 kts | 53° |
| 2026-05-08 03:45 | 21.93646 | -51.56358 | 35093 ft | 554 kts | 53° |
| 2026-05-08 03:45 | 21.99016 | -51.48574 | 35092 ft | 554 kts | 53° |
| 2026-05-08 03:46 | 22.02842 | -51.43020 | 35091 ft | 554 kts | 53° |
| 2026-05-08 03:46 | 22.07437 | -51.36343 | 35094 ft | 554 kts | 53° |
| 2026-05-08 03:47 | 22.12031 | -51.29659 | 35097 ft | 555 kts | 53° |
| 2026-05-08 03:47 | 22.16620 | -51.22973 | 35097 ft | 555 kts | 53° |
| 2026-05-08 03:48 | 22.21215 | -51.16271 | 35095 ft | 555 kts | 53° |
| 2026-05-08 03:48 | 22.25798 | -51.09577 | 35091 ft | 555 kts | 53° |
| 2026-05-08 03:49 | 22.30353 | -51.02917 | 35092 ft | 555 kts | 53° |
| 2026-05-08 03:49 | 22.34936 | -50.96207 | 35097 ft | 555 kts | 53° |
| 2026-05-08 03:50 | 22.39526 | -50.89478 | 35093 ft | 555 kts | 53° |
| 2026-05-08 03:50 | 22.44114 | -50.82744 | 35096 ft | 555 kts | 53° |
| 2026-05-08 03:51 | 22.48656 | -50.76068 | 35096 ft | 555 kts | 53° |
| 2026-05-08 03:51 | 22.53231 | -50.69336 | 35092 ft | 555 kts | 53° |
| 2026-05-08 03:52 | 22.57809 | -50.62592 | 35090 ft | 555 kts | 53° |
| 2026-05-08 03:52 | 22.62383 | -50.55843 | 35093 ft | 556 kts | 53° |
| 2026-05-08 03:53 | 22.66962 | -50.49078 | 35098 ft | 556 kts | 53° |
| 2026-05-08 03:53 | 22.71497 | -50.42370 | 35097 ft | 556 kts | 53° |
| 2026-05-08 03:54 | 22.76067 | -50.35603 | 35102 ft | 556 kts | 53° |
| 2026-05-08 03:54 | 22.80629 | -50.28839 | 35100 ft | 556 kts | 53° |
| 2026-05-08 03:55 | 22.85195 | -50.22064 | 35099 ft | 556 kts | 53° |
| 2026-05-08 03:55 | 22.89759 | -50.15286 | 35100 ft | 556 kts | 53° |
| 2026-05-08 03:56 | 22.94330 | -50.08488 | 35099 ft | 556 kts | 53° |
| 2026-05-08 03:56 | 22.98889 | -50.01699 | 35104 ft | 557 kts | 53° |
| 2026-05-08 03:57 | 23.03392 | -49.94932 | 35106 ft | 557 kts | 54° |
| 2026-05-08 03:57 | 23.07905 | -49.88086 | 35108 ft | 557 kts | 54° |
| 2026-05-08 03:58 | 23.12421 | -49.81267 | 35105 ft | 556 kts | 54° |
| 2026-05-08 03:58 | 23.16949 | -49.74435 | 35104 ft | 556 kts | 54° |
| 2026-05-08 03:59 | 23.21475 | -49.67598 | 35100 ft | 556 kts | 54° |
| 2026-05-08 03:59 | 23.25972 | -49.60796 | 35101 ft | 557 kts | 54° |
| 2026-05-08 04:00 | 23.30488 | -49.53954 | 35100 ft | 557 kts | 54° |
| 2026-05-08 04:00 | 23.35002 | -49.47108 | 35101 ft | 557 kts | 54° |
| 2026-05-08 04:01 | 23.39526 | -49.40232 | 35102 ft | 557 kts | 54° |
| 2026-05-08 04:01 | 23.44038 | -49.33363 | 35102 ft | 557 kts | 54° |
| 2026-05-08 04:02 | 23.48552 | -49.26483 | 35112 ft | 557 kts | 54° |
| 2026-05-08 04:02 | 23.53061 | -49.19599 | 35112 ft | 557 kts | 54° |
| 2026-05-08 04:03 | 23.57525 | -49.12775 | 35111 ft | 557 kts | 54° |
| 2026-05-08 04:03 | 23.64275 | -49.02440 | 35100 ft | 556 kts | 54° |
| 2026-05-08 04:04 | 23.68759 | -48.95562 | 35102 ft | 555 kts | 54° |
| 2026-05-08 04:04 | 23.73223 | -48.88707 | 35089 ft | 553 kts | 54° |
| 2026-05-08 04:05 | 23.77688 | -48.81841 | 35084 ft | 553 kts | 54° |
| 2026-05-08 04:05 | 23.82104 | -48.75039 | 35084 ft | 552 kts | 54° |
| 2026-05-08 04:06 | 23.86540 | -48.68199 | 35075 ft | 551 kts | 55° |
| 2026-05-08 04:06 | 23.90965 | -48.61366 | 35079 ft | 551 kts | 55° |
| 2026-05-08 04:07 | 23.95397 | -48.54512 | 35084 ft | 552 kts | 55° |
| 2026-05-08 04:07 | 23.99834 | -48.47641 | 35100 ft | 553 kts | 55° |
| 2026-05-08 04:08 | 24.04273 | -48.40758 | 35107 ft | 554 kts | 55° |
| 2026-05-08 04:08 | 24.08722 | -48.33850 | 35114 ft | 555 kts | 55° |
| 2026-05-08 04:09 | 24.13143 | -48.26976 | 35120 ft | 556 kts | 55° |
| 2026-05-08 04:09 | 24.17589 | -48.20053 | 35127 ft | 556 kts | 55° |
| 2026-05-08 04:10 | 24.22041 | -48.13111 | 35127 ft | 556 kts | 55° |
| 2026-05-08 04:10 | 24.26475 | -48.06187 | 35129 ft | 555 kts | 55° |
| 2026-05-08 04:11 | 24.30913 | -47.99247 | 35125 ft | 555 kts | 55° |
| 2026-05-08 04:11 | 24.35333 | -47.92327 | 35125 ft | 554 kts | 55° |
| 2026-05-08 04:12 | 24.39749 | -47.85402 | 35119 ft | 553 kts | 55° |
| 2026-05-08 04:12 | 24.44163 | -47.78472 | 35121 ft | 553 kts | 55° |
| 2026-05-08 04:13 | 24.48541 | -47.71587 | 35118 ft | 553 kts | 55° |
| 2026-05-08 04:13 | 24.52957 | -47.64632 | 35121 ft | 552 kts | 55° |
| 2026-05-08 04:14 | 24.57328 | -47.57740 | 35121 ft | 552 kts | 56° |
| 2026-05-08 04:14 | 24.61710 | -47.50819 | 35120 ft | 552 kts | 56° |
| 2026-05-08 04:15 | 24.66092 | -47.43890 | 35118 ft | 552 kts | 56° |
| 2026-05-08 04:15 | 24.70477 | -47.36945 | 35127 ft | 551 kts | 56° |
| 2026-05-08 04:16 | 24.74815 | -47.30064 | 35124 ft | 551 kts | 56° |
| 2026-05-08 04:16 | 24.79181 | -47.23130 | 35128 ft | 551 kts | 56° |
| 2026-05-08 04:17 | 24.83543 | -47.16193 | 35128 ft | 551 kts | 56° |
| 2026-05-08 04:17 | 24.87900 | -47.09252 | 35130 ft | 550 kts | 56° |
| 2026-05-08 04:18 | 24.92246 | -47.02321 | 35130 ft | 550 kts | 56° |
| 2026-05-08 04:18 | 24.96590 | -46.95381 | 35127 ft | 550 kts | 56° |
| 2026-05-08 04:19 | 25.00921 | -46.88453 | 35126 ft | 549 kts | 56° |
| 2026-05-08 04:19 | 25.05257 | -46.81506 | 35130 ft | 549 kts | 56° |
| 2026-05-08 04:20 | 25.09580 | -46.74570 | 35125 ft | 548 kts | 56° |
| 2026-05-08 04:20 | 25.13871 | -46.67676 | 35132 ft | 548 kts | 56° |
| 2026-05-08 04:21 | 25.18181 | -46.60741 | 35129 ft | 548 kts | 56° |
| 2026-05-08 04:21 | 25.22492 | -46.53794 | 35131 ft | 547 kts | 56° |
| 2026-05-08 04:22 | 25.26786 | -46.46865 | 35132 ft | 547 kts | 56° |
| 2026-05-08 04:22 | 25.31084 | -46.39919 | 35135 ft | 547 kts | 56° |
| 2026-05-08 04:23 | 25.35380 | -46.32965 | 35133 ft | 547 kts | 56° |
| 2026-05-08 04:23 | 25.39662 | -46.26025 | 35134 ft | 546 kts | 56° |
| 2026-05-08 04:24 | 25.43917 | -46.19119 | 35132 ft | 546 kts | 56° |
| 2026-05-08 04:24 | 25.48138 | -46.12257 | 35137 ft | 546 kts | 56° |
| 2026-05-08 04:25 | 25.52404 | -46.05312 | 35137 ft | 545 kts | 56° |
| 2026-05-08 04:25 | 25.56660 | -45.98373 | 35136 ft | 545 kts | 56° |
| 2026-05-08 04:26 | 25.60920 | -45.91419 | 35176 ft | 549 kts | 56° |
| 2026-05-08 04:26 | 25.65274 | -45.84297 | 35147 ft | 562 kts | 56° |
| 2026-05-08 04:27 | 25.69654 | -45.77124 | 35144 ft | 561 kts | 56° |
| 2026-05-08 04:27 | 25.74007 | -45.69983 | 35123 ft | 561 kts | 56° |
| 2026-05-08 04:28 | 25.78378 | -45.62803 | 35127 ft | 561 kts | 56° |
| 2026-05-08 04:28 | 25.82751 | -45.55608 | 35125 ft | 561 kts | 56° |
| 2026-05-08 04:29 | 25.87101 | -45.48440 | 35125 ft | 560 kts | 56° |
| 2026-05-08 04:29 | 25.91444 | -45.41271 | 35123 ft | 559 kts | 56° |
| 2026-05-08 04:30 | 25.95783 | -45.34098 | 35123 ft | 558 kts | 56° |
| 2026-05-08 04:30 | 25.99385 | -45.28136 | 35120 ft | 558 kts | 56° |
| 2026-05-08 04:31 | 26.04407 | -45.19810 | 35120 ft | 558 kts | 56° |
| 2026-05-08 04:31 | 26.08723 | -45.12643 | 35125 ft | 558 kts | 56° |
| 2026-05-08 04:32 | 26.13042 | -45.05458 | 35133 ft | 559 kts | 56° |
| 2026-05-08 04:32 | 26.17363 | -44.98261 | 35138 ft | 560 kts | 56° |
| 2026-05-08 04:33 | 26.20955 | -44.92267 | 35163 ft | 560 kts | 56° |
| 2026-05-08 04:33 | 26.25285 | -44.85034 | 35166 ft | 560 kts | 56° |
| 2026-05-08 04:34 | 26.29609 | -44.77798 | 35158 ft | 561 kts | 56° |
| 2026-05-08 04:34 | 26.33925 | -44.70565 | 35157 ft | 560 kts | 56° |
| 2026-05-08 04:35 | 26.38249 | -44.63306 | 35146 ft | 560 kts | 56° |
| 2026-05-08 04:35 | 26.42551 | -44.56072 | 35148 ft | 560 kts | 56° |
| 2026-05-08 04:36 | 26.46850 | -44.48833 | 35146 ft | 559 kts | 56° |
| 2026-05-08 04:36 | 26.51111 | -44.41645 | 35143 ft | 559 kts | 56° |
| 2026-05-08 04:37 | 26.55422 | -44.34363 | 35151 ft | 558 kts | 56° |
| 2026-05-08 04:37 | 26.59700 | -44.27125 | 35144 ft | 558 kts | 56° |
| 2026-05-08 04:38 | 26.63942 | -44.19935 | 35151 ft | 558 kts | 56° |
| 2026-05-08 04:38 | 26.68209 | -44.12690 | 35156 ft | 558 kts | 57° |
| 2026-05-08 04:39 | 26.72476 | -44.05435 | 35147 ft | 558 kts | 57° |
| 2026-05-08 04:39 | 26.76738 | -43.98178 | 35148 ft | 558 kts | 57° |
| 2026-05-08 04:40 | 26.81003 | -43.90902 | 35148 ft | 558 kts | 57° |
| 2026-05-08 04:40 | 26.85223 | -43.83692 | 35150 ft | 557 kts | 57° |
| 2026-05-08 04:41 | 26.89478 | -43.76409 | 35159 ft | 557 kts | 57° |
| 2026-05-08 04:41 | 26.93720 | -43.69139 | 35161 ft | 557 kts | 57° |
| 2026-05-08 04:42 | 26.97954 | -43.61869 | 35173 ft | 557 kts | 57° |
| 2026-05-08 04:42 | 27.02191 | -43.54583 | 35174 ft | 557 kts | 57° |
| 2026-05-08 04:43 | 27.06417 | -43.47303 | 35159 ft | 557 kts | 57° |
| 2026-05-08 04:43 | 27.10649 | -43.40001 | 35155 ft | 557 kts | 57° |
| 2026-05-08 04:44 | 27.14840 | -43.32758 | 35157 ft | 557 kts | 57° |
| 2026-05-08 04:44 | 27.19063 | -43.25449 | 35183 ft | 557 kts | 57° |
| 2026-05-08 04:45 | 27.23271 | -43.18151 | 35165 ft | 557 kts | 57° |
| 2026-05-08 04:45 | 27.27488 | -43.10828 | 35170 ft | 557 kts | 57° |
| 2026-05-08 04:46 | 27.31693 | -43.03513 | 35171 ft | 557 kts | 57° |
| 2026-05-08 04:46 | 27.35901 | -42.96180 | 35170 ft | 557 kts | 57° |
| 2026-05-08 04:47 | 27.40075 | -42.88895 | 35168 ft | 557 kts | 57° |
| 2026-05-08 04:47 | 27.44275 | -42.81551 | 35169 ft | 557 kts | 57° |
| 2026-05-08 04:48 | 27.48474 | -42.74197 | 35172 ft | 558 kts | 57° |
| 2026-05-08 04:48 | 27.52662 | -42.66850 | 35177 ft | 558 kts | 57° |
| 2026-05-08 04:49 | 27.56853 | -42.59486 | 35176 ft | 558 kts | 57° |
| 2026-05-08 04:49 | 27.61010 | -42.52167 | 35173 ft | 558 kts | 57° |
| 2026-05-08 04:50 | 27.65196 | -42.44786 | 35180 ft | 558 kts | 57° |
| 2026-05-08 04:50 | 27.69371 | -42.37414 | 35176 ft | 558 kts | 57° |
| 2026-05-08 04:51 | 27.73551 | -42.30018 | 35175 ft | 558 kts | 57° |
| 2026-05-08 04:51 | 27.77726 | -42.22619 | 35178 ft | 558 kts | 57° |
| 2026-05-08 04:52 | 27.81901 | -42.15208 | 35178 ft | 558 kts | 57° |
| 2026-05-08 04:52 | 27.86069 | -42.07794 | 35181 ft | 558 kts | 57° |
| 2026-05-08 04:53 | 27.90205 | -42.00428 | 35182 ft | 558 kts | 57° |
| 2026-05-08 04:53 | 27.94366 | -41.93003 | 35185 ft | 558 kts | 57° |
| 2026-05-08 04:54 | 27.98522 | -41.85574 | 35181 ft | 558 kts | 57° |
| 2026-05-08 04:54 | 28.02674 | -41.78139 | 35183 ft | 559 kts | 57° |
| 2026-05-08 04:55 | 28.06821 | -41.70699 | 35181 ft | 559 kts | 57° |
| 2026-05-08 04:55 | 28.10959 | -41.63265 | 35185 ft | 559 kts | 57° |
| 2026-05-08 04:56 | 28.15107 | -41.55799 | 35188 ft | 559 kts | 57° |
| 2026-05-08 04:56 | 28.19239 | -41.48348 | 35192 ft | 559 kts | 57° |
| 2026-05-08 04:57 | 28.23372 | -41.40882 | 35190 ft | 559 kts | 57° |
| 2026-05-08 04:57 | 28.27437 | -41.33526 | 35192 ft | 559 kts | 57° |
| 2026-05-08 04:58 | 28.31540 | -41.26089 | 35189 ft | 559 kts | 57° |
| 2026-05-08 04:58 | 28.35658 | -41.18612 | 35192 ft | 559 kts | 57° |
| 2026-05-08 04:59 | 28.39781 | -41.11112 | 35196 ft | 559 kts | 57° |
| 2026-05-08 04:59 | 28.43894 | -41.03617 | 35195 ft | 559 kts | 57° |
| 2026-05-08 05:00 | 28.48008 | -40.96108 | 35192 ft | 559 kts | 57° |
| 2026-05-08 05:00 | 28.52114 | -40.88598 | 35193 ft | 559 kts | 57° |
| 2026-05-08 05:01 | 28.56187 | -40.81137 | 35195 ft | 559 kts | 57° |
| 2026-05-08 05:01 | 28.60287 | -40.73612 | 35193 ft | 559 kts | 57° |
| 2026-05-08 05:02 | 28.64381 | -40.66085 | 35193 ft | 559 kts | 57° |
| 2026-05-08 05:02 | 28.68469 | -40.58554 | 35200 ft | 559 kts | 57° |
| 2026-05-08 05:03 | 28.72530 | -40.51062 | 35200 ft | 559 kts | 57° |
| 2026-05-08 05:03 | 28.76609 | -40.43525 | 35195 ft | 559 kts | 57° |
| 2026-05-08 05:04 | 28.80689 | -40.35978 | 35196 ft | 559 kts | 57° |
| 2026-05-08 05:04 | 28.84762 | -40.28433 | 35198 ft | 558 kts | 57° |
| 2026-05-08 05:05 | 28.88834 | -40.20877 | 35200 ft | 558 kts | 57° |
| 2026-05-08 05:05 | 28.92892 | -40.13330 | 35202 ft | 558 kts | 57° |
| 2026-05-08 05:06 | 28.96953 | -40.05765 | 35203 ft | 558 kts | 57° |
| 2026-05-08 05:06 | 29.00865 | -39.98143 | 35196 ft | 559 kts | 62° |
| 2026-05-08 05:07 | 29.04391 | -39.90230 | 35195 ft | 559 kts | 61° |
| 2026-05-08 05:07 | 29.07993 | -39.82362 | 35198 ft | 559 kts | 61° |
| 2026-05-08 05:08 | 29.11596 | -39.74456 | 35199 ft | 559 kts | 61° |
| 2026-05-08 05:08 | 29.15177 | -39.66562 | 35197 ft | 559 kts | 61° |
| 2026-05-08 05:09 | 29.18725 | -39.58720 | 35199 ft | 559 kts | 61° |
| 2026-05-08 05:09 | 29.22307 | -39.50789 | 35205 ft | 559 kts | 61° |
| 2026-05-08 05:10 | 29.27654 | -39.38909 | 35204 ft | 559 kts | 61° |
| 2026-05-08 05:11 | 29.31214 | -39.30976 | 35206 ft | 559 kts | 61° |
| 2026-05-08 05:11 | 29.34765 | -39.23043 | 35207 ft | 559 kts | 61° |
| 2026-05-08 05:12 | 29.38311 | -39.15105 | 35207 ft | 559 kts | 61° |
| 2026-05-08 05:12 | 29.41855 | -39.07158 | 35211 ft | 559 kts | 61° |
| 2026-05-08 05:13 | 29.45395 | -38.99203 | 35211 ft | 559 kts | 61° |
| 2026-05-08 05:13 | 29.48901 | -38.91307 | 35212 ft | 559 kts | 61° |
| 2026-05-08 05:14 | 29.52424 | -38.83358 | 35211 ft | 559 kts | 61° |
| 2026-05-08 05:14 | 29.55953 | -38.75381 | 35205 ft | 559 kts | 61° |
| 2026-05-08 05:15 | 29.59466 | -38.67421 | 35209 ft | 559 kts | 61° |
| 2026-05-08 05:15 | 29.62957 | -38.59496 | 35210 ft | 559 kts | 61° |
| 2026-05-08 05:16 | 29.66465 | -38.51516 | 35212 ft | 559 kts | 61° |
| 2026-05-08 05:16 | 29.69967 | -38.43531 | 35212 ft | 559 kts | 61° |
| 2026-05-08 05:17 | 29.73462 | -38.35548 | 35214 ft | 559 kts | 61° |
| 2026-05-08 05:17 | 29.76956 | -38.27549 | 35215 ft | 559 kts | 61° |
| 2026-05-08 05:18 | 29.80441 | -38.19556 | 35221 ft | 559 kts | 61° |
| 2026-05-08 05:18 | 29.83927 | -38.11543 | 35210 ft | 559 kts | 61° |
| 2026-05-08 05:19 | 29.87403 | -38.03537 | 35210 ft | 559 kts | 60° |
| 2026-05-08 05:19 | 29.90854 | -37.95571 | 35210 ft | 559 kts | 60° |
| 2026-05-08 05:20 | 29.94323 | -37.87548 | 35218 ft | 559 kts | 60° |
| 2026-05-08 05:20 | 29.97783 | -37.79528 | 35224 ft | 559 kts | 60° |
| 2026-05-08 05:21 | 30.01240 | -37.71498 | 35222 ft | 559 kts | 60° |
| 2026-05-08 05:21 | 30.04693 | -37.63460 | 35222 ft | 559 kts | 60° |
| 2026-05-08 05:22 | 30.08127 | -37.55451 | 35223 ft | 559 kts | 60° |
| 2026-05-08 05:22 | 30.11569 | -37.47406 | 35222 ft | 559 kts | 60° |
| 2026-05-08 05:23 | 30.14447 | -37.40665 | 35223 ft | 559 kts | 60° |
| 2026-05-08 05:23 | 30.18435 | -37.31303 | 35228 ft | 559 kts | 60° |
| 2026-05-08 05:24 | 30.21289 | -37.24591 | 35227 ft | 559 kts | 60° |
| 2026-05-08 05:24 | 30.24710 | -37.16529 | 35223 ft | 558 kts | 60° |
| 2026-05-08 05:25 | 30.28130 | -37.08452 | 35223 ft | 558 kts | 60° |
| 2026-05-08 05:25 | 30.31541 | -37.00380 | 35223 ft | 558 kts | 60° |
| 2026-05-08 05:26 | 30.34947 | -36.92300 | 35221 ft | 558 kts | 60° |
| 2026-05-08 05:26 | 30.38349 | -36.84215 | 35226 ft | 558 kts | 60° |
| 2026-05-08 05:27 | 30.41725 | -36.76172 | 35228 ft | 558 kts | 60° |
| 2026-05-08 05:27 | 30.45116 | -36.68078 | 35224 ft | 558 kts | 60° |
| 2026-05-08 05:28 | 30.48497 | -36.59987 | 35225 ft | 558 kts | 60° |
| 2026-05-08 05:28 | 30.51876 | -36.51885 | 35225 ft | 558 kts | 60° |
| 2026-05-08 05:29 | 30.55248 | -36.43784 | 35225 ft | 558 kts | 60° |
| 2026-05-08 05:29 | 30.58614 | -36.35678 | 35226 ft | 557 kts | 60° |
| 2026-05-08 05:30 | 30.61978 | -36.27559 | 35226 ft | 557 kts | 60° |
| 2026-05-08 05:30 | 30.65304 | -36.19515 | 35225 ft | 556 kts | 60° |
| 2026-05-08 05:31 | 30.68649 | -36.11406 | 35225 ft | 556 kts | 60° |
| 2026-05-08 05:31 | 30.71985 | -36.03302 | 35227 ft | 556 kts | 60° |
| 2026-05-08 05:32 | 30.75319 | -35.95184 | 35224 ft | 555 kts | 60° |
| 2026-05-08 05:32 | 30.78640 | -35.87082 | 35222 ft | 555 kts | 60° |
| 2026-05-08 05:33 | 30.81962 | -35.78958 | 35223 ft | 555 kts | 60° |
| 2026-05-08 05:33 | 30.85255 | -35.70886 | 35224 ft | 555 kts | 60° |
| 2026-05-08 05:34 | 30.88562 | -35.62762 | 35226 ft | 555 kts | 60° |
| 2026-05-08 05:34 | 30.91860 | -35.54643 | 35219 ft | 554 kts | 60° |
| 2026-05-08 05:35 | 30.95158 | -35.46507 | 35222 ft | 554 kts | 60° |
| 2026-05-08 05:35 | 30.98426 | -35.38425 | 35220 ft | 554 kts | 60° |
| 2026-05-08 05:36 | 31.01711 | -35.30286 | 35220 ft | 554 kts | 60° |
| 2026-05-08 05:36 | 31.04826 | -35.22546 | 35217 ft | 554 kts | 60° |
| 2026-05-08 05:37 | 31.08073 | -35.14466 | 35218 ft | 554 kts | 60° |
| 2026-05-08 05:37 | 31.11340 | -35.06314 | 35225 ft | 553 kts | 60° |
| 2026-05-08 05:38 | 31.14596 | -34.98174 | 35227 ft | 553 kts | 60° |
| 2026-05-08 05:38 | 31.17842 | -34.90038 | 35221 ft | 553 kts | 60° |
| 2026-05-08 05:39 | 31.21089 | -34.81883 | 35221 ft | 553 kts | 60° |
| 2026-05-08 05:39 | 31.24329 | -34.73726 | 35219 ft | 553 kts | 60° |
| 2026-05-08 05:40 | 31.25952 | -34.69635 | 35219 ft | 553 kts | 60° |